Beaver, Oklahoma
Current Conditions -  °F | °C
As of 12:55 AM on Sunday 26 Oct 2014 (Local Time) from KLBL Reporting Station
Clear Clear  
Wind Chill: 63°   Ceiling: Unl
Heat Index: 63°   Visibility: 10mi
Dew Point: 46°   Wind: 14mph
Humidity: 55%   Direction: 180°S
Pressure: 29.95"   Gusts: NA
Location:  36.82°N, 100.52°W
Report Text: KLBL 260555Z AUTO 18012KT 10SM CLR 17/08 A2995 RMK AO1 10260 20170 57014
Loading
Personal Weather Stations






























Interactive Weather Map
Tropical Storm Tracking
New forecast layout! Learn more

10-Day Weather Forecast

Advertisements
Track Severe Weather on mobile